createdAt,value
2019-03-17T00:01:15.943Z,62.47
2019-03-17T00:03:42.623Z,62.60
2019-03-17T00:06:09.254Z,63.63
2019-03-17T00:08:39.031Z,68.57
2019-03-17T00:11:05.679Z,73.33
2019-03-17T00:13:32.245Z,79.57
2019-03-17T00:15:58.870Z,71.87
2019-03-17T00:18:25.553Z,77.97
2019-03-17T00:20:52.259Z,72.27
2019-03-17T00:23:18.982Z,60.20
2019-03-17T00:25:45.673Z,66.67
2019-03-17T00:28:12.523Z,60.63
2019-03-17T00:30:39.430Z,68.07
2019-03-17T00:33:06.040Z,74.17
2019-03-17T00:35:32.695Z,76.40
2019-03-17T00:37:59.275Z,68.37
2019-03-17T00:40:25.878Z,68.33
2019-03-17T00:42:53.713Z,63.50
2019-03-17T00:45:20.871Z,79.43
2019-03-17T00:47:47.494Z,65.47
2019-03-17T00:50:14.328Z,68.53
2019-03-17T00:52:40.900Z,69.00
2019-03-17T00:55:07.887Z,69.07
2019-03-17T00:57:34.763Z,75.83
2019-03-17T01:00:02.478Z,71.10
2019-03-17T01:02:29.293Z,66.20
2019-03-17T01:04:56.650Z,64.97
2019-03-17T01:07:23.556Z,64.90
2019-03-17T01:09:50.295Z,68.37
2019-03-17T01:12:17.317Z,66.73
2019-03-17T01:14:43.892Z,63.20
2019-03-17T01:17:10.564Z,62.10
2019-03-17T01:19:37.506Z,66.87
2019-03-17T01:22:04.244Z,63.57
2019-03-17T01:24:30.839Z,61.17
2019-03-17T01:27:00.312Z,72.37
2019-03-17T01:29:29.093Z,81.47
2019-03-17T01:31:56.272Z,98.83
2019-03-17T01:34:23.583Z,89.87
2019-03-17T01:36:50.877Z,73.27
2019-03-17T01:39:19.381Z,62.63
2019-03-17T01:41:47.030Z,55.67
2019-03-17T01:44:13.782Z,55.80
2019-03-17T01:46:40.378Z,56.47
2019-03-17T01:49:06.926Z,53.23
2019-03-17T01:51:33.549Z,49.07
2019-03-17T01:54:00.146Z,45.37
2019-03-17T01:56:26.766Z,48.33
2019-03-17T01:58:53.583Z,44.13
2019-03-17T02:01:20.494Z,43.50
2019-03-17T02:03:47.243Z,45.63
2019-03-17T02:06:13.915Z,42.17
2019-03-17T02:08:40.613Z,46.93
2019-03-17T02:11:07.273Z,49.33
2019-03-17T02:13:33.824Z,50.43
2019-03-17T02:16:00.505Z,52.37
2019-03-17T02:18:27.070Z,44.30
2019-03-17T02:20:53.691Z,49.67
2019-03-17T02:23:21.712Z,42.50
2019-03-17T02:25:48.361Z,38.67
2019-03-17T02:28:15.009Z,35.33
2019-03-17T02:30:41.621Z,37.60
2019-03-17T02:33:08.236Z,38.47
2019-03-17T02:35:39.432Z,33.57
2019-03-17T02:38:03.317Z,34.03
2019-03-17T02:40:29.992Z,30.70
2019-03-17T02:42:56.670Z,28.93
2019-03-17T02:45:23.495Z,30.43
2019-03-17T02:47:50.060Z,33.43
2019-03-17T02:50:16.662Z,26.47
2019-03-17T02:52:43.276Z,27.23
2019-03-17T02:55:10.282Z,25.67
2019-03-17T02:57:39.924Z,28.50
2019-03-17T03:00:09.591Z,23.60
2019-03-17T03:02:36.398Z,25.80
2019-03-17T03:05:05.984Z,22.63
2019-03-17T03:07:32.887Z,24.10
2019-03-17T03:09:59.460Z,27.67
2019-03-17T03:12:26.199Z,24.43
2019-03-17T03:14:52.749Z,27.07
2019-03-17T03:17:19.360Z,24.70
2019-03-17T03:19:45.899Z,22.90
2019-03-17T03:22:12.459Z,21.87
2019-03-17T03:24:39.166Z,21.47
2019-03-17T03:27:05.898Z,20.03
2019-03-17T03:29:32.644Z,25.10
2019-03-17T03:31:59.235Z,22.37
2019-03-17T03:34:25.939Z,22.17
2019-03-17T03:36:52.688Z,24.10
2019-03-17T03:39:19.391Z,20.63
2019-03-17T03:41:45.927Z,29.07
2019-03-17T03:44:12.490Z,19.60
2019-03-17T03:46:40.351Z,22.13
2019-03-17T03:49:07.144Z,24.50
2019-03-17T03:51:33.854Z,21.23
2019-03-17T03:54:00.678Z,30.97
2019-03-17T03:56:27.349Z,23.70
2019-03-17T03:58:54.163Z,23.20
2019-03-17T04:01:20.842Z,22.33
2019-03-17T04:03:47.421Z,24.97
2019-03-17T04:06:25.517Z,19.97
2019-03-17T04:08:42.507Z,21.50
2019-03-17T04:11:09.140Z,19.70
2019-03-17T04:13:35.711Z,19.40
2019-03-17T04:16:02.403Z,19.27
2019-03-17T04:18:29.142Z,20.00
2019-03-17T04:20:55.798Z,20.47
2019-03-17T04:23:22.709Z,16.47
2019-03-17T04:25:49.438Z,18.77
2019-03-17T04:28:16.198Z,21.57
2019-03-17T04:30:42.781Z,18.97
2019-03-17T04:33:09.512Z,19.33
2019-03-17T04:35:36.242Z,18.80
2019-03-17T04:38:03.008Z,18.57
2019-03-17T04:40:29.893Z,18.13
2019-03-17T04:42:56.500Z,18.93
2019-03-17T04:45:23.263Z,20.50
2019-03-17T04:47:49.814Z,18.90
2019-03-17T04:50:16.421Z,17.23
2019-03-17T04:52:43.142Z,18.63
2019-03-17T04:55:09.826Z,19.77
2019-03-17T04:57:36.493Z,19.07
2019-03-17T05:00:09.601Z,21.03
2019-03-17T05:02:36.323Z,21.73
2019-03-17T05:05:06.027Z,19.90
2019-03-17T05:07:33.793Z,24.40
2019-03-17T05:10:00.518Z,19.23
2019-03-17T05:12:27.083Z,22.63
2019-03-17T05:14:53.649Z,22.10
2019-03-17T05:17:20.364Z,20.97
2019-03-17T05:19:46.979Z,20.17
2019-03-17T05:22:13.736Z,20.53
2019-03-17T05:24:40.301Z,18.87
2019-03-17T05:27:06.873Z,19.83
2019-03-17T05:29:33.707Z,19.60
2019-03-17T05:32:00.402Z,19.53
2019-03-17T05:34:27.067Z,19.00
2019-03-17T05:37:05.501Z,20.60
2019-03-17T05:39:22.318Z,20.27
2019-03-17T05:41:48.905Z,19.33
2019-03-17T05:44:15.479Z,20.53
2019-03-17T05:46:42.094Z,22.10
2019-03-17T05:49:08.760Z,20.43
2019-03-17T05:51:35.351Z,17.60
2019-03-17T05:54:02.051Z,20.97
2019-03-17T05:56:28.591Z,20.60
2019-03-17T05:58:55.293Z,19.63
2019-03-17T06:01:22.084Z,21.70
2019-03-17T06:03:48.703Z,21.93
2019-03-17T06:06:15.291Z,19.13
2019-03-17T06:08:41.944Z,21.80
2019-03-17T06:11:08.583Z,20.67
2019-03-17T06:13:35.396Z,21.60
2019-03-17T06:16:01.993Z,18.53
2019-03-17T06:18:28.571Z,17.27
2019-03-17T06:20:55.631Z,20.60
2019-03-17T06:23:22.281Z,19.87
2019-03-17T06:25:48.954Z,18.43
2019-03-17T06:28:15.520Z,21.17
2019-03-17T06:30:42.178Z,18.43
2019-03-17T06:33:08.809Z,18.77
2019-03-17T06:35:35.479Z,20.03
2019-03-17T06:38:05.009Z,18.83
2019-03-17T06:40:31.647Z,20.37
2019-03-17T06:42:58.354Z,23.17
2019-03-17T06:45:24.951Z,19.00
2019-03-17T06:47:51.586Z,19.67
2019-03-17T06:50:18.150Z,19.60
2019-03-17T06:52:44.896Z,20.53
2019-03-17T06:55:16.209Z,24.43
2019-03-17T06:57:42.792Z,20.27
2019-03-17T07:00:12.393Z,22.37
2019-03-17T07:02:39.104Z,17.57
2019-03-17T07:05:08.272Z,22.67
2019-03-17T07:07:43.884Z,23.27
2019-03-17T07:10:07.794Z,19.37
2019-03-17T07:12:34.494Z,22.20
2019-03-17T07:15:01.483Z,20.50
2019-03-17T07:17:28.036Z,19.93
2019-03-17T07:19:54.702Z,20.47
2019-03-17T07:22:21.444Z,21.43
2019-03-17T07:24:48.147Z,19.60
2019-03-17T07:27:14.950Z,21.10
2019-03-17T07:29:41.586Z,21.60
2019-03-17T07:32:08.301Z,20.80
2019-03-17T07:34:35.020Z,21.47
2019-03-17T07:37:01.568Z,17.17
2019-03-17T07:39:28.159Z,20.37
2019-03-17T07:41:54.747Z,21.87
2019-03-17T07:44:21.892Z,18.03
2019-03-17T07:46:48.531Z,15.50
2019-03-17T07:49:15.412Z,18.33
2019-03-17T07:51:42.007Z,16.07
2019-03-17T07:54:08.577Z,21.93
2019-03-17T07:56:35.210Z,14.63
2019-03-17T07:59:01.889Z,14.27
2019-03-17T08:01:28.512Z,15.47
2019-03-17T08:03:55.147Z,19.40
2019-03-17T08:06:21.884Z,14.17
2019-03-17T08:08:49.678Z,15.33
2019-03-17T08:11:16.387Z,16.77
2019-03-17T08:13:43.095Z,13.07
2019-03-17T08:16:09.659Z,15.97
2019-03-17T08:18:36.342Z,12.60
2019-03-17T08:21:04.113Z,13.60
2019-03-17T08:23:30.684Z,15.47
2019-03-17T08:25:57.247Z,22.67
2019-03-17T08:28:23.865Z,15.93
2019-03-17T08:30:53.516Z,14.90
2019-03-17T08:33:21.089Z,10.93
2019-03-17T08:35:47.891Z,13.60
2019-03-17T08:38:21.747Z,14.80
2019-03-17T08:40:43.177Z,15.70
2019-03-17T08:43:09.864Z,10.93
2019-03-17T08:45:36.438Z,14.40
2019-03-17T08:48:08.113Z,10.47
2019-03-17T08:50:34.683Z,12.90
2019-03-17T08:53:01.471Z,12.83
2019-03-17T08:55:28.033Z,10.43
2019-03-17T08:57:54.606Z,12.07
2019-03-17T09:00:21.330Z,10.10
2019-03-17T09:02:48.050Z,10.00
2019-03-17T09:05:14.947Z,11.90
2019-03-17T09:07:41.558Z,10.57
2019-03-17T09:10:13.041Z,10.70
2019-03-17T09:12:39.862Z,9.30
2019-03-17T09:15:06.990Z,9.93
2019-03-17T09:17:33.954Z,13.00
2019-03-17T09:20:00.681Z,12.40
2019-03-17T09:22:27.255Z,12.03
2019-03-17T09:24:53.954Z,10.27
2019-03-17T09:27:20.712Z,14.97
2019-03-17T09:29:47.327Z,10.20
2019-03-17T09:32:14.022Z,11.57
2019-03-17T09:34:40.575Z,11.90
2019-03-17T09:37:07.161Z,11.30
2019-03-17T09:39:33.911Z,10.27
2019-03-17T09:42:00.653Z,12.73
2019-03-17T09:44:27.221Z,9.47
2019-03-17T09:46:54.013Z,12.03
2019-03-17T09:49:20.750Z,12.10
2019-03-17T09:51:47.496Z,10.63
2019-03-17T09:54:14.367Z,13.73
2019-03-17T09:56:41.246Z,8.47
2019-03-17T09:59:08.032Z,8.37
2019-03-17T10:01:34.705Z,7.47
2019-03-17T10:04:02.602Z,11.17
2019-03-17T10:06:29.287Z,10.67
2019-03-17T10:09:00.123Z,9.73
2019-03-17T10:11:24.643Z,7.23
2019-03-17T10:13:51.363Z,8.33
2019-03-17T10:16:18.019Z,9.27
2019-03-17T10:18:44.576Z,8.13
2019-03-17T10:21:14.184Z,43.20
2019-03-17T10:23:40.937Z,9.83
2019-03-17T10:26:10.859Z,8.53
2019-03-17T10:28:37.469Z,8.20
2019-03-17T10:31:04.380Z,9.23
2019-03-17T10:33:32.285Z,7.60
2019-03-17T10:35:59.197Z,6.90
2019-03-17T10:38:25.761Z,12.13
2019-03-17T10:40:52.464Z,9.53
2019-03-17T10:43:19.162Z,11.27
2019-03-17T10:45:45.975Z,8.93
2019-03-17T10:48:12.534Z,10.70
2019-03-17T10:50:49.387Z,8.63
2019-03-17T10:53:08.579Z,10.73
2019-03-17T10:55:38.187Z,9.43
2019-03-17T10:58:05.040Z,11.30
2019-03-17T11:00:32.030Z,9.53
2019-03-17T11:02:58.696Z,5.83
2019-03-17T11:05:25.291Z,8.80
2019-03-17T11:07:51.847Z,7.40
2019-03-17T11:10:18.535Z,8.23
2019-03-17T11:12:45.305Z,5.93
2019-03-17T11:15:15.042Z,9.13
2019-03-17T11:17:41.671Z,7.53
2019-03-17T11:20:11.677Z,6.80
2019-03-17T11:22:38.655Z,8.13
2019-03-17T11:25:10.230Z,6.13
2019-03-17T11:27:37.104Z,7.80
2019-03-17T11:30:09.292Z,5.33
2019-03-17T11:32:35.892Z,6.43
2019-03-17T11:35:04.812Z,10.57
2019-03-17T11:37:32.809Z,6.87
2019-03-17T11:39:59.419Z,6.67
2019-03-17T11:42:25.989Z,6.63
2019-03-17T11:44:52.818Z,5.23
2019-03-17T11:47:19.998Z,5.93
2019-03-17T11:49:46.738Z,4.57
2019-03-17T11:52:14.351Z,5.27
2019-03-17T11:55:37.418Z,9.17
2019-03-17T11:58:04.202Z,6.07
2019-03-17T12:00:31.350Z,7.27
2019-03-17T12:02:57.986Z,5.77
2019-03-17T12:05:24.650Z,8.07
2019-03-17T12:07:51.348Z,5.83
2019-03-17T12:10:22.651Z,6.10
2019-03-17T12:12:49.322Z,7.43
2019-03-17T12:15:20.570Z,7.00
2019-03-17T12:17:47.507Z,4.97
2019-03-17T12:20:14.963Z,6.07
2019-03-17T12:22:41.839Z,3.60
2019-03-17T12:25:12.132Z,4.87
2019-03-17T12:27:39.072Z,6.33
2019-03-17T12:30:11.383Z,5.27
2019-03-17T12:32:38.041Z,6.03
2019-03-17T12:35:04.952Z,4.90
2019-03-17T12:37:31.584Z,4.33
2019-03-17T12:40:02.743Z,4.50
2019-03-17T12:42:26.776Z,3.73
2019-03-17T12:45:49.955Z,4.47
2019-03-17T12:48:16.635Z,7.40
2019-03-17T12:50:43.387Z,4.03
2019-03-17T12:53:10.177Z,4.43
2019-03-17T12:55:36.829Z,6.30
2019-03-17T12:58:03.460Z,4.57
2019-03-17T13:00:30.057Z,5.90
2019-03-17T13:02:57.068Z,7.90
2019-03-17T13:05:23.645Z,5.57
2019-03-17T13:07:50.342Z,4.23
2019-03-17T13:10:20.899Z,4.60
2019-03-17T13:12:47.606Z,3.97
2019-03-17T13:15:14.596Z,3.83
2019-03-17T13:17:41.388Z,5.37
2019-03-17T13:20:12.558Z,5.23
2019-03-17T13:22:40.345Z,4.30
2019-03-17T13:25:10.177Z,4.37
2019-03-17T13:27:38.662Z,5.70
2019-03-17T13:30:10.284Z,3.53
2019-03-17T13:32:36.922Z,3.57
2019-03-17T13:35:06.440Z,4.47
2019-03-17T13:37:33.009Z,4.83
2019-03-17T13:39:59.694Z,5.17
2019-03-17T13:42:26.315Z,5.17
2019-03-17T13:44:53.055Z,5.50
2019-03-17T13:47:19.710Z,4.70
2019-03-17T13:49:46.365Z,5.00
2019-03-17T13:52:13.426Z,4.43
2019-03-17T13:54:40.073Z,4.57
2019-03-17T13:57:06.745Z,5.17
2019-03-17T13:59:33.379Z,6.20
2019-03-17T14:02:00.103Z,7.00
2019-03-17T14:04:26.732Z,7.63
2019-03-17T14:06:53.724Z,5.70
2019-03-17T14:09:20.503Z,5.00
2019-03-17T14:11:47.112Z,8.97
2019-03-17T14:14:13.705Z,9.37
2019-03-17T14:16:40.374Z,6.20
2019-03-17T14:19:07.326Z,4.80
2019-03-17T14:21:33.973Z,5.77
2019-03-17T14:24:00.623Z,6.23
2019-03-17T14:26:27.332Z,7.57
2019-03-17T14:28:53.988Z,4.77
2019-03-17T14:32:18.292Z,4.23
2019-03-17T14:34:44.881Z,5.23
2019-03-17T14:37:11.608Z,4.50
2019-03-17T14:39:38.153Z,6.30
2019-03-17T14:42:04.850Z,8.60
2019-03-17T14:44:31.587Z,5.63
2019-03-17T14:46:58.150Z,14.07
2019-03-17T14:49:24.815Z,7.17
2019-03-17T14:51:51.569Z,9.13
2019-03-17T14:54:18.175Z,6.63
2019-03-17T14:56:46.371Z,6.67
2019-03-17T14:59:13.075Z,4.70
2019-03-17T15:01:39.723Z,6.77
2019-03-17T15:04:06.444Z,5.37
2019-03-17T15:06:33.134Z,6.90
2019-03-17T15:08:59.842Z,5.37
2019-03-17T15:11:27.557Z,7.73
2019-03-17T15:13:54.577Z,9.47
2019-03-17T15:16:22.822Z,8.80
2019-03-17T15:18:49.480Z,4.70
2019-03-17T15:21:16.036Z,6.40
2019-03-17T15:23:44.203Z,4.50
2019-03-17T15:26:11.905Z,5.57
2019-03-17T15:28:38.482Z,5.00
2019-03-17T15:31:11.346Z,7.33
2019-03-17T15:33:34.143Z,6.83
2019-03-17T15:36:01.927Z,10.50
2019-03-17T15:38:28.517Z,8.33
2019-03-17T15:40:55.435Z,6.07
2019-03-17T15:43:23.762Z,7.73
2019-03-17T15:45:53.912Z,4.20
2019-03-17T15:48:22.407Z,4.43
2019-03-17T15:50:51.369Z,3.73
2019-03-17T15:53:23.792Z,6.73
2019-03-17T15:55:52.760Z,6.47
2019-03-17T15:58:24.009Z,6.13
2019-03-17T16:00:54.172Z,8.93
2019-03-17T16:03:32.000Z,5.77
2019-03-17T16:06:06.803Z,7.00
2019-03-17T16:08:38.986Z,8.47
2019-03-17T16:11:08.117Z,5.97
2019-03-17T16:13:37.046Z,5.87
2019-03-17T16:16:04.633Z,7.17
2019-03-17T16:18:31.904Z,7.83
2019-03-17T16:20:58.798Z,8.37
2019-03-17T16:23:26.658Z,6.10
2019-03-17T16:25:54.589Z,8.23
2019-03-17T16:28:23.381Z,7.57
2019-03-17T16:30:54.344Z,6.93
2019-03-17T16:33:25.186Z,4.87
2019-03-17T16:35:54.970Z,5.50
2019-03-17T16:38:28.510Z,5.80
2019-03-17T16:40:56.042Z,5.73
2019-03-17T16:43:22.803Z,9.50
2019-03-17T16:45:49.624Z,7.60
2019-03-17T16:48:16.197Z,7.20
2019-03-17T16:50:42.800Z,7.37
2019-03-17T16:53:09.437Z,7.37
2019-03-17T16:55:36.128Z,9.27
2019-03-17T16:58:03.300Z,11.33
2019-03-17T17:00:30.590Z,9.60
2019-03-17T17:02:57.283Z,8.43
2019-03-17T17:05:25.005Z,10.23
2019-03-17T17:07:51.727Z,16.47
2019-03-17T17:11:14.518Z,13.57
2019-03-17T17:13:41.119Z,20.50
2019-03-17T17:16:07.762Z,21.70
2019-03-17T17:18:34.586Z,17.87
2019-03-17T17:21:01.285Z,22.07
2019-03-17T17:23:30.972Z,26.00
2019-03-17T17:25:58.070Z,14.17
2019-03-17T17:28:24.974Z,14.87
2019-03-17T17:30:51.557Z,12.57
2019-03-17T17:33:18.171Z,10.47
2019-03-17T17:36:41.729Z,9.87
2019-03-17T17:39:08.668Z,8.20
2019-03-17T17:42:31.529Z,8.23
2019-03-17T17:44:58.201Z,10.07
2019-03-17T17:47:24.965Z,9.87
2019-03-17T17:49:51.645Z,11.13
2019-03-17T17:52:18.357Z,14.50
2019-03-17T17:54:45.038Z,11.73
2019-03-17T17:57:11.761Z,15.03
2019-03-17T17:59:41.349Z,16.67
2019-03-17T18:02:08.175Z,19.50
2019-03-17T18:04:36.867Z,19.60
2019-03-17T18:07:07.128Z,25.20
2019-03-17T18:09:33.907Z,25.40
2019-03-17T18:12:00.795Z,27.50
2019-03-17T18:14:28.655Z,25.87
2019-03-17T18:16:55.507Z,30.60
2019-03-17T18:19:23.173Z,36.57
2019-03-17T18:21:49.944Z,36.37
2019-03-17T18:24:18.000Z,36.00
2019-03-17T18:26:45.434Z,30.00
2019-03-17T18:29:12.374Z,29.93
2019-03-17T18:31:39.726Z,33.17
2019-03-17T18:34:06.435Z,31.40
2019-03-17T18:36:33.265Z,34.97
2019-03-17T18:39:01.377Z,33.23
2019-03-17T18:41:32.591Z,39.93
2019-03-17T18:43:59.213Z,42.80
2019-03-17T18:46:25.850Z,40.03
2019-03-17T18:48:53.066Z,44.77
2019-03-17T18:51:19.824Z,51.73
2019-03-17T18:53:47.103Z,52.87
2019-03-17T18:56:13.885Z,52.70
2019-03-17T18:58:42.181Z,54.40
2019-03-17T19:01:08.876Z,59.90
2019-03-17T19:03:36.692Z,58.27
2019-03-17T19:06:04.187Z,63.00
2019-03-17T19:08:30.831Z,63.13
2019-03-17T19:10:57.677Z,68.63
2019-03-17T19:13:24.617Z,42.77
2019-03-17T19:15:52.437Z,40.07
2019-03-17T19:18:19.518Z,40.20
2019-03-17T19:20:47.231Z,48.80
2019-03-17T19:23:13.817Z,41.03
2019-03-17T19:25:40.905Z,52.07
2019-03-17T19:28:07.698Z,58.37
2019-03-17T19:30:34.843Z,63.37
2019-03-17T19:33:01.898Z,66.90
2019-03-17T19:35:28.721Z,65.93
2019-03-17T19:37:56.471Z,67.97
2019-03-17T19:40:24.437Z,80.27
2019-03-17T19:42:58.550Z,68.57
2019-03-17T19:45:21.389Z,68.47
2019-03-17T19:47:49.931Z,64.13
2019-03-17T19:50:20.920Z,48.73
2019-03-17T19:52:47.811Z,49.80
2019-03-17T19:55:14.945Z,47.53
2019-03-17T19:57:42.195Z,49.27
2019-03-17T20:01:05.054Z,47.60
2019-03-17T20:03:32.180Z,49.60
2019-03-17T20:06:02.441Z,47.93
2019-03-17T20:08:28.229Z,49.10
2019-03-17T20:10:54.962Z,50.80
2019-03-17T20:13:22.390Z,46.23
2019-03-17T20:15:50.336Z,47.40
2019-03-17T20:18:17.022Z,46.37
2019-03-17T20:20:44.086Z,46.40
2019-03-17T20:23:10.849Z,53.93
2019-03-17T20:25:37.432Z,54.47
2019-03-17T20:28:04.269Z,55.27
2019-03-17T20:30:31.265Z,62.20
2019-03-17T20:32:58.025Z,49.20
2019-03-17T20:35:24.693Z,53.20
2019-03-17T20:37:51.268Z,46.63
2019-03-17T20:40:18.394Z,42.87
2019-03-17T20:42:45.271Z,41.27
2019-03-17T20:45:14.276Z,44.20
2019-03-17T20:47:41.850Z,42.30
2019-03-17T20:50:12.206Z,39.60
2019-03-17T20:52:39.321Z,47.00
2019-03-17T20:55:09.466Z,53.70
2019-03-17T20:57:36.249Z,55.73
2019-03-17T21:00:08.545Z,56.33
2019-03-17T21:02:35.146Z,44.93
2019-03-17T21:05:02.849Z,43.30
2019-03-17T21:07:31.493Z,50.93
2019-03-17T21:09:58.166Z,64.53
2019-03-17T21:12:24.774Z,65.73
2019-03-17T21:14:51.354Z,57.83
2019-03-17T21:17:17.931Z,63.13
2019-03-17T21:19:45.487Z,52.83
2019-03-17T21:22:12.170Z,56.43
2019-03-17T21:24:38.948Z,64.03
2019-03-17T21:27:05.643Z,67.70
2019-03-17T21:29:32.357Z,69.17
2019-03-17T21:31:59.529Z,61.40
2019-03-17T21:34:26.222Z,57.10
2019-03-17T21:36:52.827Z,63.23
2019-03-17T21:39:19.386Z,62.00
2019-03-17T21:41:45.956Z,58.47
2019-03-17T21:44:12.588Z,61.90
2019-03-17T21:46:39.171Z,58.30
2019-03-17T21:49:05.847Z,56.67
2019-03-17T21:51:32.446Z,60.97
2019-03-17T21:53:59.125Z,54.93
2019-03-17T21:56:25.855Z,55.23
2019-03-17T21:58:53.855Z,55.80
2019-03-17T22:01:20.473Z,49.40
2019-03-17T22:04:43.336Z,51.43
2019-03-17T22:07:09.894Z,91.30
2019-03-17T22:09:36.589Z,94.83
2019-03-17T22:12:03.393Z,110.17
2019-03-17T22:14:30.074Z,99.07
2019-03-17T22:16:58.663Z,92.73
2019-03-17T22:19:25.334Z,79.13
2019-03-17T22:21:51.965Z,79.77
2019-03-17T22:24:18.804Z,71.90
2019-03-17T22:26:45.381Z,80.83
2019-03-17T22:29:12.115Z,77.53
2019-03-17T22:31:38.888Z,84.53
2019-03-17T22:34:08.116Z,81.50
2019-03-17T22:36:34.282Z,48.30
2019-03-17T22:39:00.851Z,43.43
2019-03-17T22:41:27.490Z,32.40
2019-03-17T22:43:54.363Z,33.03
2019-03-17T22:46:21.204Z,29.87
2019-03-17T22:48:47.904Z,20.97
2019-03-17T22:51:14.476Z,24.47
2019-03-17T22:53:42.241Z,23.53
2019-03-17T22:56:08.871Z,20.97
2019-03-17T22:58:35.510Z,17.23
2019-03-17T23:01:02.619Z,15.43
2019-03-17T23:03:29.598Z,15.43
2019-03-17T23:05:56.695Z,15.33
2019-03-17T23:08:23.826Z,13.37
2019-03-17T23:10:50.939Z,13.37
2019-03-17T23:13:18.223Z,12.07
2019-03-17T23:15:45.442Z,13.57
2019-03-17T23:18:12.586Z,10.47
2019-03-17T23:20:40.708Z,5.90
2019-03-17T23:23:07.956Z,10.57
2019-03-17T23:25:35.242Z,7.37
2019-03-17T23:28:02.520Z,5.70
2019-03-17T23:30:29.631Z,7.40
2019-03-17T23:32:56.805Z,5.37
2019-03-17T23:35:23.811Z,5.07
2019-03-17T23:37:50.949Z,4.03
2019-03-17T23:40:18.000Z,5.23
2019-03-17T23:42:45.199Z,3.17
2019-03-17T23:45:12.732Z,3.27
2019-03-17T23:47:39.867Z,4.37
2019-03-17T23:50:10.610Z,7.77
2019-03-17T23:52:37.613Z,2.63
2019-03-17T23:55:08.507Z,3.27
2019-03-17T23:57:36.718Z,4.07
